Metar GG30 METAR message from awiacja.imgw.pl Metar G30 EPRZ METAR EPRZ 240830Z 23009KT 9999 BKN024 14/10 Q1014 =